Time;durP1;ratioP1;P1;durP2;ratioP2;P2;SDS_P1;SDS_P2;PMS_P1;PMS_P2;Temp;Humidity;BMP_temperature;BMP_pressure;BME280_temperature;BME280_humidity;BME280_pressure;Samples;Min_cycle;Max_cycle;Signal;HPM_P1;HPM_P2
2023/08/11 00:00:25;;;;;;;1.97;1.77;;;13.00;1.00;;;;;;5052948;28;20459;-65
2023/08/11 00:02:51;;;;;;;2.57;2.03;;;12.90;1.00;;;;;;5052925;28;20409;-69
2023/08/11 00:05:18;;;;;;;1.93;1.77;;;12.90;1.00;;;;;;5051686;28;20171;-71
2023/08/11 00:07:45;;;;;;;3.63;2.13;;;12.90;1.00;;;;;;5052445;28;20531;-72
2023/08/11 00:10:12;;;;;;;4.47;1.77;;;12.90;1.00;;;;;;5053036;28;20413;-74
2023/08/11 00:12:39;;;;;;;5.83;2.57;;;12.80;1.00;;;;;;5064987;28;20436;-74
2023/08/11 00:15:06;;;;;;;3.13;2.03;;;12.80;1.00;;;;;;5071533;28;20818;-74
2023/08/11 00:17:32;;;;;;;4.27;2.20;;;12.80;1.00;;;;;;5072887;28;20395;-65
2023/08/11 00:19:58;;;;;;;3.57;2.50;;;12.80;1.00;;;;;;5071545;28;20538;-74
2023/08/11 00:22:24;;;;;;;3.90;2.50;;;12.80;1.00;;;;;;5061649;28;20437;-65
2023/08/11 00:24:49;;;;;;;4.07;2.53;;;12.70;1.00;;;;;;5052593;28;20194;-73
2023/08/11 00:27:15;;;;;;;3.33;2.77;;;12.70;1.00;;;;;;5058377;28;20562;-65
2023/08/11 00:29:41;;;;;;;2.00;1.90;;;12.60;1.00;;;;;;5060070;28;20183;-73
2023/08/11 00:32:06;;;;;;;3.23;2.17;;;12.70;1.00;;;;;;5051899;28;20175;-64
2023/08/11 00:34:32;;;;;;;8.73;2.83;;;12.60;1.00;;;;;;5052541;28;20194;-65
2023/08/11 00:36:58;;;;;;;2.10;2.00;;;12.60;1.00;;;;;;5050254;28;20331;-67
2023/08/11 00:39:24;;;;;;;2.40;2.20;;;12.60;1.00;;;;;;5052652;28;20171;-74
2023/08/11 00:41:50;;;;;;;4.10;2.43;;;12.60;1.00;;;;;;5062920;28;20209;-65
2023/08/11 00:44:16;;;;;;;2.30;2.10;;;12.60;1.00;;;;;;5072651;28;20166;-72
2023/08/11 00:46:43;;;;;;;2.10;1.90;;;12.60;1.00;;;;;;5071384;28;21071;-70
2023/08/11 00:49:09;;;;;;;2.57;2.23;;;12.50;1.00;;;;;;5072417;28;20404;-73
2023/08/11 00:51:35;;;;;;;4.33;3.07;;;12.50;1.00;;;;;;5072451;28;20368;-65
2023/08/11 00:54:01;;;;;;;5.40;2.90;;;12.50;1.00;;;;;;5072552;28;20436;-73
2023/08/11 00:56:27;;;;;;;4.33;4.03;;;12.50;1.00;;;;;;5069982;28;20411;-73
2023/08/11 00:58:54;;;;;;;3.03;2.83;;;12.50;1.00;;;;;;5072385;28;21000;-73
2023/08/11 01:01:20;;;;;;;4.07;2.73;;;12.50;1.00;;;;;;5071026;28;20635;-66
2023/08/11 01:03:47;;;;;;;4.13;2.63;;;12.50;1.00;;;;;;5071066;28;20404;-70
2023/08/11 01:06:36;;;;;;;4.17;2.80;;;12.50;1.00;;;;;;5064723;28;20183;-74
2023/08/11 01:09:16;;;;;;;3.93;2.90;;;12.50;1.00;;;;;;5052332;28;20488;-69
2023/08/11 01:12:21;;;;;;;5.63;3.50;;;12.50;1.00;;;;;;5061591;28;20467;-73
2023/08/11 01:15:12;;;;;;;3.00;2.47;;;12.50;1.00;;;;;;5072317;28;20475;-65
2023/08/11 01:17:41;;;;;;;3.27;2.27;;;12.50;1.00;;;;;;5070917;28;20440;-65
2023/08/11 01:20:10;;;;;;;3.83;2.53;;;12.40;1.00;;;;;;5072894;28;20399;-64
2023/08/11 01:22:40;;;;;;;4.03;2.47;;;12.40;1.00;;;;;;5075698;28;20427;-64
2023/08/11 01:25:08;;;;;;;2.77;2.57;;;12.40;1.00;;;;;;5074786;28;20886;-65
2023/08/11 01:27:55;;;;;;;2.80;2.13;;;12.40;1.00;;;;;;5073979;28;20448;-64
2023/08/11 01:30:22;;;;;;;8.37;3.40;;;12.40;1.00;;;;;;5074304;28;20510;-74
2023/08/11 01:32:48;;;;;;;5.00;2.53;;;12.40;1.00;;;;;;5066063;28;20429;-64
2023/08/11 01:35:14;;;;;;;4.03;2.53;;;12.40;1.00;;;;;;5054448;28;20499;-74
2023/08/11 01:37:39;;;;;;;2.90;2.33;;;12.40;1.00;;;;;;5055223;28;20525;-73
2023/08/11 01:40:11;;;;;;;4.60;2.43;;;12.40;1.00;;;;;;5055435;28;20167;-74
2023/08/11 01:42:46;;;;;;;5.77;2.60;;;12.40;1.00;;;;;;5060567;28;20258;-73
2023/08/11 01:45:15;;;;;;;2.70;2.50;;;12.40;1.00;;;;;;5054405;28;20468;-74
2023/08/11 01:47:45;;;;;;;4.20;2.77;;;12.40;1.00;;;;;;5055029;28;20441;-70
2023/08/11 01:50:13;;;;;;;2.13;2.03;;;12.40;1.00;;;;;;5055362;28;20447;-73
2023/08/11 01:52:41;;;;;;;6.60;2.70;;;12.40;1.00;;;;;;5055246;28;20372;-74
2023/08/11 01:55:11;;;;;;;2.77;2.50;;;12.40;1.00;;;;;;5054130;28;20813;-65
2023/08/11 01:57:38;;;;;;;3.30;2.27;;;12.40;1.00;;;;;;5066841;28;20926;-73
2023/08/11 02:00:07;;;;;;;6.07;2.63;;;12.40;1.00;;;;;;5075026;28;20397;-67
2023/08/11 02:02:33;;;;;;;2.87;2.67;;;12.40;1.00;;;;;;5075037;28;20375;-71
2023/08/11 02:04:59;;;;;;;2.97;2.23;;;12.40;1.00;;;;;;5073685;28;20463;-65
2023/08/11 02:07:25;;;;;;;3.20;2.57;;;12.40;1.00;;;;;;5073276;28;20639;-65
2023/08/11 02:09:54;;;;;;;6.33;2.70;;;12.40;1.00;;;;;;5074844;28;20182;-66
2023/08/11 02:12:20;;;;;;;5.90;2.20;;;12.50;1.00;;;;;;5073014;28;20178;-74
2023/08/11 02:14:46;;;;;;;3.43;2.40;;;12.50;1.00;;;;;;5074541;28;20455;-65
2023/08/11 02:17:11;;;;;;;3.97;2.27;;;12.40;1.00;;;;;;5073658;28;20391;-74
2023/08/11 02:19:37;;;;;;;2.53;2.20;;;12.40;1.00;;;;;;5074653;28;20167;-74
2023/08/11 02:22:03;;;;;;;3.03;2.70;;;12.40;1.00;;;;;;5074723;28;20169;-71
2023/08/11 02:24:29;;;;;;;4.07;2.00;;;12.40;1.00;;;;;;5073392;28;20185;-73
2023/08/11 02:26:55;;;;;;;1.70;1.60;;;12.40;1.00;;;;;;5062495;28;20420;-73
2023/08/11 02:29:22;;;;;;;2.80;2.03;;;12.40;1.00;;;;;;5053160;28;20392;-73
2023/08/11 02:31:48;;;;;;;2.87;2.20;;;12.40;1.00;;;;;;5054132;28;20406;-66
2023/08/11 02:34:15;;;;;;;5.10;2.27;;;12.40;1.00;;;;;;5054316;28;20894;-73
2023/08/11 02:36:40;;;;;;;2.77;2.53;;;12.40;1.00;;;;;;5053562;28;20403;-70
2023/08/11 02:39:06;;;;;;;9.87;4.13;;;12.40;1.00;;;;;;5053488;28;20918;-70
2023/08/11 02:41:33;;;;;;;2.80;2.60;;;12.30;1.00;;;;;;5057983;28;20205;-72
2023/08/11 02:43:58;;;;;;;5.10;3.27;;;12.40;1.00;;;;;;5074104;28;20166;-66
2023/08/11 02:46:24;;;;;;;4.80;3.10;;;12.40;1.00;;;;;;5072139;28;20412;-75
2023/08/11 02:48:50;;;;;;;4.67;4.20;;;12.50;1.00;;;;;;5073914;28;20650;-73
2023/08/11 02:51:15;;;;;;;5.73;2.97;;;12.50;1.00;;;;;;5073415;28;20408;-70
2023/08/11 02:53:41;;;;;;;2.80;2.60;;;12.50;1.00;;;;;;5073304;28;20197;-73
2023/08/11 02:56:09;;;;;;;7.33;2.97;;;12.60;1.00;;;;;;5072969;28;20209;-74
2023/08/11 02:58:35;;;;;;;3.47;2.77;;;12.60;1.00;;;;;;5072547;28;20647;-69
2023/08/11 03:01:03;;;;;;;3.30;2.80;;;12.60;1.00;;;;;;5073033;28;20836;-65
2023/08/11 03:03:29;;;;;;;2.43;2.23;;;12.60;1.00;;;;;;5073962;28;20458;-65
2023/08/11 03:05:55;;;;;;;6.43;2.80;;;12.70;1.00;;;;;;5071620;28;20519;-65
2023/08/11 03:08:21;;;;;;;6.80;3.00;;;12.70;1.00;;;;;;5065737;28;20682;-65
2023/08/11 03:10:47;;;;;;;3.90;2.20;;;12.70;1.00;;;;;;5053853;28;20412;-73
2023/08/11 03:13:13;;;;;;;3.40;2.67;;;12.70;1.00;;;;;;5066921;28;20428;-70
2023/08/11 03:15:38;;;;;;;8.13;2.87;;;12.80;1.00;;;;;;5072617;28;20724;-74
2023/08/11 03:18:04;;;;;;;2.90;2.00;;;12.80;1.00;;;;;;5072201;28;20280;-72
2023/08/11 03:20:30;;;;;;;4.83;2.90;;;12.80;1.00;;;;;;5073462;28;20162;-73
2023/08/11 03:22:56;;;;;;;3.30;2.40;;;12.80;1.00;;;;;;5073316;28;20411;-71
2023/08/11 03:25:22;;;;;;;3.07;2.87;;;12.90;1.00;;;;;;5061872;28;20912;-65
2023/08/11 03:27:47;;;;;;;4.80;2.67;;;12.90;1.00;;;;;;5060976;28;20659;-64
2023/08/11 03:30:13;;;;;;;4.47;2.50;;;13.00;1.00;;;;;;5072281;28;20174;-68
2023/08/11 03:32:40;;;;;;;5.93;3.63;;;13.00;1.00;;;;;;5073350;28;20174;-65
2023/08/11 03:35:06;;;;;;;5.80;3.37;;;13.10;1.00;;;;;;5072308;28;20247;-65
2023/08/11 03:37:35;;;;;;;6.00;2.60;;;13.20;1.00;;;;;;5073293;28;20483;-65
2023/08/11 03:40:04;;;;;;;2.97;2.77;;;13.20;1.00;;;;;;5072992;28;20392;-65
2023/08/11 03:42:29;;;;;;;4.00;2.90;;;13.30;1.00;;;;;;5056040;28;20520;-74
2023/08/11 03:44:55;;;;;;;4.17;2.90;;;13.40;1.00;;;;;;5052933;28;20504;-65
2023/08/11 03:47:21;;;;;;;3.30;2.80;;;13.40;1.00;;;;;;5052512;28;20210;-64
2023/08/11 03:49:46;;;;;;;3.40;2.57;;;13.50;1.00;;;;;;5053087;28;20167;-73
2023/08/11 03:52:13;;;;;;;9.20;2.90;;;13.60;1.00;;;;;;5053110;28;20174;-65
2023/08/11 03:54:39;;;;;;;5.00;2.50;;;13.60;1.00;;;;;;5052816;28;20206;-64
2023/08/11 03:57:05;;;;;;;8.13;2.90;;;13.70;1.00;;;;;;5064689;28;20427;-65
2023/08/11 03:59:30;;;;;;;9.93;3.23;;;13.70;1.00;;;;;;5073135;28;20740;-73
2023/08/11 04:01:56;;;;;;;22.30;3.47;;;13.70;1.00;;;;;;5072982;28;20401;-73
2023/08/11 04:04:21;;;;;;;5.80;5.10;;;13.70;1.00;;;;;;5073033;28;20170;-74
2023/08/11 04:06:47;;;;;;;4.33;2.63;;;13.80;1.00;;;;;;5071920;28;20170;-74
2023/08/11 04:09:13;;;;;;;6.30;2.70;;;13.80;1.00;;;;;;5059589;28;20185;-65
2023/08/11 04:11:39;;;;;;;6.37;2.80;;;13.80;1.00;;;;;;5061940;28;20181;-72
2023/08/11 04:14:04;;;;;;;4.50;3.20;;;13.80;1.00;;;;;;5072624;28;20531;-73
2023/08/11 04:16:30;;;;;;;4.90;2.93;;;13.90;1.00;;;;;;5071930;28;20216;-65
2023/08/11 04:18:55;;;;;;;7.23;2.60;;;13.90;1.00;;;;;;5072753;28;20734;-69
2023/08/11 04:21:23;;;;;;;5.37;3.30;;;14.00;1.00;;;;;;5072825;28;20227;-70
2023/08/11 04:23:49;;;;;;;8.83;3.30;;;14.00;1.00;;;;;;5070129;28;20219;-73
2023/08/11 04:26:14;;;;;;;7.00;5.33;;;14.00;1.00;;;;;;5055135;28;20437;-66
2023/08/11 04:28:43;;;;;;;11.57;4.43;;;14.10;1.00;;;;;;5052685;28;20769;-74
2023/08/11 04:31:09;;;;;;;5.53;4.30;;;14.10;1.00;;;;;;5059176;28;20174;-66
2023/08/11 04:33:35;;;;;;;11.83;4.67;;;14.20;1.00;;;;;;5072392;28;20411;-72
2023/08/11 04:36:02;;;;;;;5.17;3.50;;;14.20;1.00;;;;;;5071794;28;20456;-73
2023/08/11 04:38:30;;;;;;;5.37;2.70;;;14.20;1.00;;;;;;5069425;28;20194;-67
2023/08/11 04:40:57;;;;;;;8.90;4.87;;;14.30;1.00;;;;;;5070245;28;20447;-66
2023/08/11 04:43:23;;;;;;;7.17;3.50;;;14.30;1.00;;;;;;5072727;28;20461;-73
2023/08/11 04:45:49;;;;;;;4.17;2.70;;;14.30;1.00;;;;;;5071698;28;20877;-72
2023/08/11 04:48:15;;;;;;;4.43;2.30;;;14.30;1.00;;;;;;5072515;28;20191;-68
2023/08/11 04:50:41;;;;;;;3.63;2.63;;;14.30;1.00;;;;;;5072417;28;20319;-65
2023/08/11 04:53:06;;;;;;;5.43;3.17;;;14.40;1.00;;;;;;5071174;28;20567;-73
2023/08/11 04:55:33;;;;;;;4.40;2.67;;;14.40;1.00;;;;;;5055224;28;20199;-62
2023/08/11 04:57:59;;;;;;;6.40;3.23;;;14.30;1.00;;;;;;5056277;28;20183;-62
2023/08/11 05:00:25;;;;;;;7.70;4.40;;;14.40;1.00;;;;;;5056160;28;20535;-62
2023/08/11 05:02:52;;;;;;;10.43;4.67;;;14.40;1.00;;;;;;5056235;28;20523;-66
2023/08/11 05:05:19;;;;;;;7.30;3.87;;;14.40;1.00;;;;;;5055160;28;20405;-62
2023/08/11 05:07:46;;;;;;;5.73;3.33;;;14.50;1.00;;;;;;5060552;28;20529;-64
2023/08/11 05:10:11;;;;;;;14.10;4.47;;;14.60;1.00;;;;;;5060042;28;20809;-66
2023/08/11 05:12:38;;;;;;;11.40;4.17;;;14.60;1.00;;;;;;5057972;28;20479;-69
2023/08/11 05:15:04;;;;;;;5.77;3.43;;;14.60;1.00;;;;;;5063319;28;20194;-68
2023/08/11 05:17:31;;;;;;;13.70;3.80;;;14.70;1.00;;;;;;5075844;28;20423;-73
2023/08/11 05:19:57;;;;;;;9.20;3.70;;;14.70;1.00;;;;;;5075866;28;20873;-72
2023/08/11 05:22:23;;;;;;;8.33;3.77;;;14.80;1.00;;;;;;5073302;28;21004;-65
2023/08/11 05:24:49;;;;;;;9.30;3.40;;;14.80;1.00;;;;;;5055914;28;20448;-71
2023/08/11 05:27:15;;;;;;;9.13;3.83;;;14.80;1.00;;;;;;5054796;28;20413;-71
2023/08/11 05:29:45;;;;;;;8.13;3.43;;;14.80;1.00;;;;;;5055348;28;20401;-73
2023/08/11 05:32:11;;;;;;;4.23;3.07;;;14.90;1.00;;;;;;5055814;28;20405;-68
2023/08/11 05:34:38;;;;;;;6.00;3.10;;;14.90;1.00;;;;;;5055488;28;20475;-64
2023/08/11 05:37:04;;;;;;;2.70;2.50;;;14.90;1.00;;;;;;5055354;28;20457;-66
2023/08/11 05:39:31;;;;;;;2.27;2.10;;;14.90;1.00;;;;;;5055452;28;20429;-64
2023/08/11 05:41:57;;;;;;;3.53;2.53;;;15.00;1.00;;;;;;5055451;28;20401;-65
2023/08/11 05:44:23;;;;;;;2.97;2.53;;;15.00;1.00;;;;;;5055278;28;20409;-73
2023/08/11 05:46:49;;;;;;;11.70;3.30;;;15.10;1.00;;;;;;5054210;28;20402;-71
2023/08/11 05:49:14;;;;;;;5.53;2.60;;;15.10;1.00;;;;;;5054970;28;20167;-72
2023/08/11 05:51:40;;;;;;;9.83;2.60;;;15.10;1.00;;;;;;5073491;28;20178;-73
2023/08/11 05:54:06;;;;;;;5.67;2.70;;;15.20;1.00;;;;;;5073961;28;20189;-73
2023/08/11 05:56:31;;;;;;;5.30;2.77;;;15.20;1.00;;;;;;5064345;28;20206;-64
2023/08/11 05:58:57;;;;;;;4.73;2.50;;;15.30;1.00;;;;;;5055084;28;20191;-71
2023/08/11 06:01:23;;;;;;;4.37;2.53;;;15.30;1.00;;;;;;5054088;28;20171;-65
2023/08/11 06:03:49;;;;;;;3.87;2.70;;;15.40;1.00;;;;;;5063969;28;20239;-67
2023/08/11 06:06:14;;;;;;;4.67;2.87;;;15.30;1.00;;;;;;5068849;28;20174;-69
2023/08/11 06:08:40;;;;;;;4.87;2.80;;;15.40;1.00;;;;;;5054934;28;20187;-72
2023/08/11 06:11:06;;;;;;;6.50;3.33;;;15.40;1.00;;;;;;5054669;28;20574;-65
2023/08/11 06:13:31;;;;;;;6.33;2.60;;;15.50;1.00;;;;;;5054835;28;20163;-69
2023/08/11 06:15:57;;;;;;;8.10;3.30;;;15.50;1.00;;;;;;5053329;28;20690;-65
2023/08/11 06:18:23;;;;;;;5.53;2.90;;;15.50;1.00;;;;;;5054775;28;20206;-72
2023/08/11 06:20:49;;;;;;;4.53;2.90;;;15.60;1.00;;;;;;5054338;28;20627;-65
2023/08/11 06:23:14;;;;;;;4.37;2.57;;;15.70;1.00;;;;;;5054887;28;20171;-72
2023/08/11 06:25:40;;;;;;;5.40;3.00;;;15.70;1.00;;;;;;5053626;28;20910;-65
2023/08/11 06:28:07;;;;;;;12.97;3.60;;;15.80;1.00;;;;;;5054632;28;20213;-73
2023/08/11 06:30:33;;;;;;;8.97;2.73;;;15.80;1.00;;;;;;5053185;28;20197;-73
2023/08/11 06:32:59;;;;;;;5.73;2.77;;;15.90;1.00;;;;;;5054371;28;20421;-68
2023/08/11 06:35:25;;;;;;;3.13;2.47;;;15.90;1.00;;;;;;5053522;28;20457;-73
2023/08/11 06:37:51;;;;;;;5.53;2.70;;;15.90;1.00;;;;;;5055398;28;20968;-73
2023/08/11 06:40:17;;;;;;;6.33;2.60;;;16.00;1.00;;;;;;5053676;28;20476;-68
2023/08/11 06:42:43;;;;;;;9.43;3.00;;;16.10;1.00;;;;;;5054418;28;20389;-72
2023/08/11 06:45:09;;;;;;;8.67;2.83;;;16.10;1.00;;;;;;5053335;28;21247;-65
2023/08/11 06:47:35;;;;;;;3.10;2.33;;;16.20;1.00;;;;;;5054040;28;20194;-67
2023/08/11 06:50:03;;;;;;;5.37;2.17;;;16.20;1.00;;;;;;5053651;28;20394;-69
2023/08/11 06:52:29;;;;;;;3.50;2.60;;;16.30;1.00;;;;;;5071554;28;20477;-65
2023/08/11 06:54:54;;;;;;;3.93;2.73;;;16.30;1.00;;;;;;5073614;28;20447;-71
2023/08/11 06:57:20;;;;;;;5.60;2.80;;;16.40;1.00;;;;;;5072926;28;20923;-73
2023/08/11 06:59:47;;;;;;;3.33;2.47;;;16.40;1.00;;;;;;5073932;28;20620;-65
2023/08/11 07:02:13;;;;;;;5.20;2.43;;;16.60;1.00;;;;;;5073735;28;20403;-67
2023/08/11 07:04:39;;;;;;;4.00;2.63;;;16.70;1.00;;;;;;5073910;28;20952;-64
2023/08/11 07:07:05;;;;;;;3.70;2.90;;;16.80;1.00;;;;;;5052907;28;20571;-72
2023/08/11 07:09:32;;;;;;;4.93;2.83;;;16.80;1.00;;;;;;5053960;28;20499;-73
2023/08/11 07:11:58;;;;;;;4.03;2.90;;;16.90;1.00;;;;;;5053710;28;20910;-65
2023/08/11 07:14:24;;;;;;;13.90;3.17;;;17.00;1.00;;;;;;5053214;28;20433;-69
2023/08/11 07:16:50;;;;;;;3.20;2.83;;;17.00;1.00;;;;;;5051940;28;20175;-68
2023/08/11 07:19:15;;;;;;;4.30;3.23;;;17.00;1.00;;;;;;5054772;28;20440;-69
2023/08/11 07:21:41;;;;;;;4.43;3.40;;;17.10;1.00;;;;;;5065451;28;20179;-65
2023/08/11 07:24:07;;;;;;;3.70;3.27;;;17.10;1.00;;;;;;5053509;28;20255;-71
2023/08/11 07:26:32;;;;;;;7.10;3.27;;;17.20;1.00;;;;;;5052549;28;20634;-73
2023/08/11 07:28:58;;;;;;;8.33;4.10;;;17.20;1.00;;;;;;5052047;28;20478;-73
2023/08/11 07:31:24;;;;;;;3.27;3.07;;;17.20;1.00;;;;;;5061852;28;20182;-65
2023/08/11 07:33:50;;;;;;;6.10;3.60;;;17.10;1.00;;;;;;5073291;28;20300;-65
2023/08/11 07:36:16;;;;;;;6.73;4.17;;;17.10;1.00;;;;;;5070760;28;20567;-73
2023/08/11 07:38:42;;;;;;;6.13;4.20;;;17.20;1.00;;;;;;5073326;28;20186;-69
2023/08/11 07:41:08;;;;;;;9.80;3.63;;;17.10;1.00;;;;;;5071927;28;20267;-72
2023/08/11 07:43:33;;;;;;;9.40;5.13;;;17.10;1.00;;;;;;5073214;28;20881;-70
2023/08/11 07:45:59;;;;;;;6.90;3.90;;;17.20;1.00;;;;;;5070034;28;20277;-73
2023/08/11 07:48:25;;;;;;;5.07;4.23;;;17.30;1.00;;;;;;5072941;28;20189;-71
2023/08/11 07:50:50;;;;;;;3.60;3.30;;;17.40;1.00;;;;;;5071436;28;20182;-66
2023/08/11 07:53:16;;;;;;;5.80;3.90;;;17.40;1.00;;;;;;5073029;28;20707;-71
2023/08/11 07:55:42;;;;;;;7.93;4.33;;;17.50;1.00;;;;;;5072159;28;20229;-66
2023/08/11 07:58:07;;;;;;;16.43;4.87;;;17.50;1.00;;;;;;5073149;28;20182;-69
2023/08/11 08:00:33;;;;;;;5.30;3.80;;;17.50;1.00;;;;;;5072828;28;20192;-70
2023/08/11 08:02:59;;;;;;;4.97;4.30;;;17.60;1.00;;;;;;5071489;28;20177;-65
2023/08/11 08:05:24;;;;;;;6.07;4.10;;;17.50;1.00;;;;;;5070627;28;20182;-65
2023/08/11 08:07:50;;;;;;;7.33;3.70;;;17.50;1.00;;;;;;5061491;28;20203;-66
2023/08/11 08:10:16;;;;;;;5.90;3.70;;;17.50;1.00;;;;;;5051599;28;20202;-71
2023/08/11 08:12:45;;;;;;;8.50;3.90;;;17.60;1.00;;;;;;5052862;28;20174;-65
2023/08/11 08:15:13;;;;;;;7.13;3.73;;;17.60;1.00;;;;;;5051904;28;20210;-66
2023/08/11 08:17:40;;;;;;;5.60;3.93;;;17.70;1.00;;;;;;5052697;28;20417;-66
2023/08/11 08:20:09;;;;;;;7.03;5.40;;;17.70;1.00;;;;;;5057843;28;20424;-71
2023/08/11 08:22:36;;;;;;;9.40;4.87;;;17.80;1.00;;;;;;5051678;28;20543;-68
2023/08/11 08:25:06;;;;;;;5.93;4.30;;;17.80;1.00;;;;;;5052084;28;20471;-73
2023/08/11 08:27:33;;;;;;;4.80;3.90;;;17.90;1.00;;;;;;5053745;28;20417;-69
2023/08/11 08:29:59;;;;;;;6.07;5.10;;;17.90;1.00;;;;;;5056860;28;20895;-73
2023/08/11 08:32:24;;;;;;;6.60;4.50;;;18.00;1.00;;;;;;5056679;28;20429;-71
2023/08/11 08:34:50;;;;;;;7.50;4.97;;;18.00;1.00;;;;;;5061769;28;20217;-67
2023/08/11 08:37:19;;;;;;;5.93;4.50;;;17.90;1.00;;;;;;5074951;28;20193;-67
2023/08/11 08:39:46;;;;;;;5.23;4.73;;;18.00;1.00;;;;;;5076617;28;20212;-65
2023/08/11 08:42:14;;;;;;;15.43;4.90;;;18.00;1.00;;;;;;5075505;28;20408;-71
2023/08/11 08:44:41;;;;;;;6.27;5.27;;;18.00;1.00;;;;;;5071021;28;20436;-73
2023/08/11 08:47:09;;;;;;;5.53;3.57;;;18.10;1.00;;;;;;5075360;28;20443;-65
2023/08/11 08:49:38;;;;;;;11.43;4.97;;;18.30;1.00;;;;;;5074749;28;20936;-66
2023/08/11 08:52:05;;;;;;;6.40;5.07;;;18.40;1.00;;;;;;5076420;28;20876;-70
2023/08/11 08:54:32;;;;;;;5.10;4.70;;;18.40;1.00;;;;;;5063637;28;20448;-65
2023/08/11 08:56:59;;;;;;;8.50;5.07;;;18.40;1.00;;;;;;5054979;28;20428;-65
2023/08/11 08:59:25;;;;;;;6.20;4.80;;;18.50;1.00;;;;;;5056321;28;20411;-74
2023/08/11 09:01:51;;;;;;;8.17;4.47;;;18.60;1.00;;;;;;5055058;28;20965;-72
2023/08/11 09:04:19;;;;;;;6.07;4.50;;;18.70;1.00;;;;;;5055528;28;20174;-65
2023/08/11 09:06:45;;;;;;;7.80;4.40;;;18.80;1.00;;;;;;5071900;28;20427;-70
2023/08/11 09:09:12;;;;;;;6.03;4.27;;;18.80;1.00;;;;;;5075975;28;20414;-74
2023/08/11 09:11:39;;;;;;;5.60;5.10;;;18.80;1.00;;;;;;5076000;28;20245;-72
2023/08/11 09:14:07;;;;;;;7.20;4.57;;;18.80;1.00;;;;;;5075944;28;20396;-65
2023/08/11 09:16:37;;;;;;;7.07;4.63;;;18.90;1.00;;;;;;5073633;28;20497;-72
2023/08/11 09:19:07;;;;;;;8.40;4.60;;;18.70;1.00;;;;;;5073675;28;20484;-73
2023/08/11 09:21:33;;;;;;;6.70;5.60;;;18.80;1.00;;;;;;5072546;28;20962;-73
2023/08/11 09:23:59;;;;;;;7.30;5.43;;;18.90;1.00;;;;;;5060736;28;20437;-73
2023/08/11 09:26:26;;;;;;;8.33;4.60;;;18.90;1.00;;;;;;5054742;28;20401;-73
2023/08/11 09:28:53;;;;;;;14.03;4.67;;;19.00;1.00;;;;;;5055491;28;20421;-67
2023/08/11 09:31:22;;;;;;;8.00;4.67;;;19.10;1.00;;;;;;5067674;28;20441;-72
2023/08/11 09:33:49;;;;;;;5.30;4.80;;;19.10;1.00;;;;;;5054531;28;20420;-67
2023/08/11 09:36:17;;;;;;;10.27;5.50;;;19.10;1.00;;;;;;5070477;28;20452;-67
2023/08/11 09:38:47;;;;;;;6.57;5.10;;;19.10;1.00;;;;;;5061412;28;20544;-67
2023/08/11 09:41:13;;;;;;;6.30;5.70;;;19.20;1.00;;;;;;5054780;28;20401;-71
2023/08/11 09:43:44;;;;;;;5.40;4.37;;;19.20;1.00;;;;;;5055366;28;20412;-72
2023/08/11 09:46:10;;;;;;;6.53;4.87;;;19.20;1.00;;;;;;5054480;28;20421;-74
2023/08/11 09:48:35;;;;;;;6.20;5.40;;;19.20;1.00;;;;;;5055409;28;20425;-67
2023/08/11 09:51:04;;;;;;;9.23;5.30;;;19.20;1.00;;;;;;5067137;28;20239;-70
2023/08/11 09:53:30;;;;;;;14.80;5.93;;;19.20;1.00;;;;;;5075139;28;20207;-66
2023/08/11 09:55:57;;;;;;;10.83;5.40;;;19.20;1.00;;;;;;5073033;28;20652;-67
2023/08/11 09:58:26;;;;;;;6.77;5.43;;;19.30;1.00;;;;;;5074057;28;20448;-73
2023/08/11 10:00:54;;;;;;;10.77;5.00;;;19.40;1.00;;;;;;5074560;28;20405;-67
2023/08/11 10:03:26;;;;;;;5.80;4.60;;;19.40;1.00;;;;;;5075046;28;20454;-74
2023/08/11 10:05:54;;;;;;;4.87;4.47;;;19.40;1.00;;;;;;5073228;28;20845;-67
2023/08/11 10:08:22;;;;;;;5.47;5.00;;;19.50;1.00;;;;;;5074879;28;20499;-73
2023/08/11 10:10:47;;;;;;;6.10;4.87;;;19.60;1.00;;;;;;5074955;28;20477;-66
2023/08/11 10:13:21;;;;;;;5.20;4.40;;;19.70;1.00;;;;;;5073653;28;20914;-67
2023/08/11 10:15:48;;;;;;;4.90;4.50;;;19.70;1.00;;;;;;5073718;28;20225;-66
2023/08/11 10:18:16;;;;;;;8.13;4.17;;;19.80;1.00;;;;;;5073195;28;20444;-73
2023/08/11 10:20:41;;;;;;;5.90;4.63;;;19.80;1.00;;;;;;5072539;28;20436;-74
2023/08/11 10:23:08;;;;;;;4.23;3.87;;;19.90;1.00;;;;;;5074682;28;20407;-67
2023/08/11 10:25:35;;;;;;;8.07;4.60;;;19.90;1.00;;;;;;5073626;28;20170;-73
2023/08/11 10:28:06;;;;;;;4.97;4.57;;;20.00;1.00;;;;;;5074635;28;20420;-72
2023/08/11 10:30:33;;;;;;;7.73;4.03;;;20.00;1.00;;;;;;5072703;28;21253;-67
2023/08/11 10:33:06;;;;;;;6.93;4.67;;;20.10;1.00;;;;;;5074479;28;20397;-74
2023/08/11 10:35:51;;;;;;;4.97;4.57;;;20.20;1.00;;;;;;5070518;28;20934;-68
2023/08/11 10:38:32;;;;;;;9.10;5.53;;;20.30;1.00;;;;;;5073674;28;20512;-67
2023/08/11 10:41:08;;;;;;;8.13;4.60;;;20.40;1.00;;;;;;5074221;28;20446;-74
2023/08/11 10:43:40;;;;;;;4.90;4.50;;;20.50;1.00;;;;;;5073116;28;20420;-70
2023/08/11 10:46:35;;;;;;;7.43;4.80;;;20.50;1.00;;;;;;5073276;28;20412;-71
2023/08/11 10:49:04;;;;;;;7.10;4.70;;;20.60;1.00;;;;;;5048729;28;20437;-67
2023/08/11 10:51:35;;;;;;;5.03;3.57;;;20.70;1.00;;;;;;5071496;28;20435;-67
2023/08/11 10:54:06;;;;;;;5.30;4.20;;;20.80;1.00;;;;;;5073903;28;20424;-73
2023/08/11 10:56:34;;;;;;;6.73;4.97;;;20.90;1.00;;;;;;5072575;28;20770;-66
2023/08/11 10:59:26;;;;;;;6.77;3.97;;;20.90;1.00;;;;;;5073837;28;20432;-70
2023/08/11 11:01:53;;;;;;;9.70;5.47;;;20.90;1.00;;;;;;5072806;28;20474;-68
2023/08/11 11:04:21;;;;;;;5.60;4.90;;;21.10;1.00;;;;;;5065247;28;20479;-74
2023/08/11 11:06:50;;;;;;;11.50;4.30;;;21.20;1.00;;;;;;5052865;28;20409;-67
2023/08/11 11:09:17;;;;;;;5.73;4.57;;;21.30;1.00;;;;;;5053815;28;20437;-73
2023/08/11 11:11:44;;;;;;;5.27;4.80;;;21.40;1.00;;;;;;5053676;28;20939;-72
2023/08/11 11:14:11;;;;;;;9.60;4.90;;;21.50;1.00;;;;;;5052872;28;20436;-73
2023/08/11 11:16:38;;;;;;;5.13;4.30;;;21.60;1.00;;;;;;5052413;28;20976;-73
2023/08/11 11:19:05;;;;;;;7.30;5.57;;;21.80;1.00;;;;;;5055340;28;20495;-67
2023/08/11 11:21:33;;;;;;;6.20;5.60;;;21.90;1.00;;;;;;5073520;28;20924;-66
2023/08/11 11:23:59;;;;;;;7.60;5.27;;;21.90;1.00;;;;;;5073512;28;20401;-67
2023/08/11 11:26:32;;;;;;;5.70;5.20;;;22.00;1.00;;;;;;5072363;28;20499;-67
2023/08/11 11:29:01;;;;;;;8.50;5.70;;;22.20;1.00;;;;;;5073235;28;20477;-74
2023/08/11 11:31:32;;;;;;;6.33;5.50;;;22.30;1.00;;;;;;5073478;28;20396;-67
2023/08/11 11:33:57;;;;;;;11.37;6.07;;;22.30;1.00;;;;;;5068840;28;20468;-71
2023/08/11 11:36:24;;;;;;;8.03;6.10;;;22.40;1.00;;;;;;5071054;28;20488;-68
2023/08/11 11:38:51;;;;;;;8.90;5.27;;;22.40;1.00;;;;;;5073200;28;20193;-73
2023/08/11 11:41:17;;;;;;;12.10;7.10;;;22.50;1.00;;;;;;5073337;28;20758;-72
2023/08/11 11:43:46;;;;;;;11.30;6.77;;;22.60;1.00;;;;;;5073221;28;20397;-67
2023/08/11 11:46:15;;;;;;;9.37;7.00;;;22.90;1.00;;;;;;5070942;28;20478;-68
2023/08/11 11:48:46;;;;;;;8.70;7.87;;;23.00;1.00;;;;;;5071375;28;20535;-74
2023/08/11 11:51:16;;;;;;;10.27;7.70;;;23.10;1.00;;;;;;5071612;28;20431;-73
2023/08/11 11:53:43;;;;;;;9.73;8.27;;;23.10;1.00;;;;;;5072957;28;20432;-69
2023/08/11 11:56:14;;;;;;;6.93;6.23;;;23.20;1.00;;;;;;5071921;28;20932;-73
2023/08/11 11:58:39;;;;;;;6.60;6.00;;;23.50;1.00;;;;;;5073099;28;20424;-67
2023/08/11 12:01:19;;;;;;;7.90;6.07;;;23.60;1.00;;;;;;5071872;28;20463;-73
2023/08/11 12:03:49;;;;;;;6.60;5.50;;;23.70;1.00;;;;;;5071019;28;20177;-73
2023/08/11 12:06:17;;;;;;;7.03;6.30;;;23.90;1.00;;;;;;5071590;28;20918;-70
2023/08/11 12:08:44;;;;;;;6.90;6.07;;;24.10;1.00;;;;;;5072626;28;20450;-68
2023/08/11 12:11:12;;;;;;;5.30;4.90;;;24.30;1.00;;;;;;5073005;28;20438;-73
2023/08/11 12:13:42;;;;;;;6.00;5.37;;;24.50;1.00;;;;;;5072880;28;20409;-71
2023/08/11 12:16:09;;;;;;;6.13;5.20;;;25.00;1.00;;;;;;5069498;28;20477;-67
2023/08/11 12:18:39;;;;;;;5.10;4.57;;;25.40;1.00;;;;;;5070895;28;20444;-72
2023/08/11 12:21:06;;;;;;;3.93;3.53;;;25.80;1.00;;;;;;5072752;28;20439;-71
2023/08/11 12:23:32;;;;;;;6.83;4.53;;;25.60;1.00;;;;;;5072823;28;20880;-72
2023/08/11 12:25:58;;;;;;;6.33;4.63;;;25.40;1.00;;;;;;5071465;28;20405;-73
2023/08/11 12:28:26;;;;;;;3.93;3.37;;;25.20;99.90;;;;;;5070808;28;20493;-69
2023/08/11 12:30:51;;;;;;;4.03;3.63;;;25.20;99.90;;;;;;5072688;28;20885;-71
2023/08/11 12:33:17;;;;;;;3.47;3.27;;;25.00;99.90;;;;;;5069707;28;20468;-68
2023/08/11 12:35:44;;;;;;;3.47;3.17;;;25.00;99.90;;;;;;5060402;28;20197;-68
2023/08/11 12:38:12;;;;;;;4.33;3.10;;;24.90;99.90;;;;;;5072611;28;20194;-71
2023/08/11 12:40:48;;;;;;;4.67;2.83;;;24.80;99.90;;;;;;5069388;28;20424;-68
2023/08/11 12:43:14;;;;;;;3.60;2.87;;;24.90;99.90;;;;;;5072155;28;20411;-68
2023/08/11 12:45:41;;;;;;;3.33;3.13;;;25.00;99.90;;;;;;5071712;28;20400;-68
2023/08/11 12:48:08;;;;;;;3.70;3.40;;;25.30;99.90;;;;;;5069821;28;20428;-67
2023/08/11 12:50:36;;;;;;;4.10;3.80;;;25.80;99.90;;;;;;5052549;28;20397;-70
2023/08/11 12:53:04;;;;;;;5.50;4.50;;;26.20;99.90;;;;;;5052311;28;20822;-68
2023/08/11 12:55:30;;;;;;;4.03;3.10;;;26.20;99.90;;;;;;5051490;28;20509;-71